sensor_id;sensor_type;location;lat;lon;timestamp;P1;durP1;ratioP1;P2;durP2;ratioP2
25237;SDS011;13185;50.872;5.306;2023-02-01T00:00:45;21.10;;;9.25;;
25237;SDS011;13185;50.872;5.306;2023-02-01T00:03:10;20.08;;;8.93;;
25237;SDS011;13185;50.872;5.306;2023-02-01T00:05:38;25.38;;;10.55;;
25237;SDS011;13185;50.872;5.306;2023-02-01T00:08:03;19.85;;;10.68;;
25237;SDS011;13185;50.872;5.306;2023-02-01T00:10:29;20.92;;;9.85;;
25237;SDS011;13185;50.872;5.306;2023-02-01T00:12:54;16.00;;;10.02;;
25237;SDS011;13185;50.872;5.306;2023-02-01T00:15:20;22.05;;;10.32;;
25237;SDS011;13185;50.872;5.306;2023-02-01T00:17:45;29.25;;;11.75;;
25237;SDS011;13185;50.872;5.306;2023-02-01T00:20:11;23.88;;;11.30;;
25237;SDS011;13185;50.872;5.306;2023-02-01T00:22:37;27.92;;;10.82;;
25237;SDS011;13185;50.872;5.306;2023-02-01T00:25:02;21.42;;;10.23;;
25237;SDS011;13185;50.872;5.306;2023-02-01T00:27:28;24.40;;;11.20;;
25237;SDS011;13185;50.872;5.306;2023-02-01T00:29:54;25.75;;;9.88;;
25237;SDS011;13185;50.872;5.306;2023-02-01T00:32:20;19.98;;;9.02;;
25237;SDS011;13185;50.872;5.306;2023-02-01T00:34:46;23.85;;;9.85;;
25237;SDS011;13185;50.872;5.306;2023-02-01T00:37:12;22.88;;;8.95;;
25237;SDS011;13185;50.872;5.306;2023-02-01T00:39:37;20.27;;;8.80;;
25237;SDS011;13185;50.872;5.306;2023-02-01T00:42:03;18.02;;;8.85;;
25237;SDS011;13185;50.872;5.306;2023-02-01T00:44:28;29.83;;;10.13;;
25237;SDS011;13185;50.872;5.306;2023-02-01T00:46:58;20.45;;;9.35;;
25237;SDS011;13185;50.872;5.306;2023-02-01T00:49:23;21.25;;;8.93;;
25237;SDS011;13185;50.872;5.306;2023-02-01T00:51:49;22.42;;;9.63;;
25237;SDS011;13185;50.872;5.306;2023-02-01T00:54:14;23.48;;;9.45;;
25237;SDS011;13185;50.872;5.306;2023-02-01T00:56:40;23.00;;;9.63;;
25237;SDS011;13185;50.872;5.306;2023-02-01T00:59:05;18.10;;;9.40;;
25237;SDS011;13185;50.872;5.306;2023-02-01T01:01:35;20.17;;;9.75;;
25237;SDS011;13185;50.872;5.306;2023-02-01T01:04:00;23.63;;;10.48;;
25237;SDS011;13185;50.872;5.306;2023-02-01T01:06:27;18.40;;;8.82;;
25237;SDS011;13185;50.872;5.306;2023-02-01T01:08:57;25.50;;;9.68;;
25237;SDS011;13185;50.872;5.306;2023-02-01T01:11:25;22.25;;;9.55;;
25237;SDS011;13185;50.872;5.306;2023-02-01T01:13:53;24.20;;;11.00;;
25237;SDS011;13185;50.872;5.306;2023-02-01T01:16:20;21.63;;;10.75;;
25237;SDS011;13185;50.872;5.306;2023-02-01T01:18:49;20.45;;;9.85;;
25237;SDS011;13185;50.872;5.306;2023-02-01T01:21:16;24.65;;;10.18;;
25237;SDS011;13185;50.872;5.306;2023-02-01T01:23:42;27.77;;;11.73;;
25237;SDS011;13185;50.872;5.306;2023-02-01T01:26:19;25.70;;;9.75;;
25237;SDS011;13185;50.872;5.306;2023-02-01T01:28:47;23.95;;;9.63;;
25237;SDS011;13185;50.872;5.306;2023-02-01T01:31:14;28.55;;;10.40;;
25237;SDS011;13185;50.872;5.306;2023-02-01T01:33:42;22.50;;;10.23;;
25237;SDS011;13185;50.872;5.306;2023-02-01T01:36:09;22.50;;;10.57;;
25237;SDS011;13185;50.872;5.306;2023-02-01T01:38:37;25.45;;;10.10;;
25237;SDS011;13185;50.872;5.306;2023-02-01T01:41:04;24.58;;;11.45;;
25237;SDS011;13185;50.872;5.306;2023-02-01T01:46:27;21.80;;;9.70;;
25237;SDS011;13185;50.872;5.306;2023-02-01T01:51:32;30.65;;;9.25;;
25237;SDS011;13185;50.872;5.306;2023-02-01T01:54:09;20.13;;;9.10;;
25237;SDS011;13185;50.872;5.306;2023-02-01T01:56:42;21.90;;;9.90;;
25237;SDS011;13185;50.872;5.306;2023-02-01T01:59:09;24.70;;;9.70;;
25237;SDS011;13185;50.872;5.306;2023-02-01T02:01:35;26.90;;;9.60;;
25237;SDS011;13185;50.872;5.306;2023-02-01T02:04:01;20.35;;;8.00;;
25237;SDS011;13185;50.872;5.306;2023-02-01T02:09:06;22.15;;;7.97;;
25237;SDS011;13185;50.872;5.306;2023-02-01T02:11:31;21.85;;;8.50;;
25237;SDS011;13185;50.872;5.306;2023-02-01T02:13:57;24.95;;;8.40;;
25237;SDS011;13185;50.872;5.306;2023-02-01T02:16:26;23.88;;;7.60;;
25237;SDS011;13185;50.872;5.306;2023-02-01T02:19:23;27.55;;;7.78;;
25237;SDS011;13185;50.872;5.306;2023-02-01T02:35:56;18.25;;;6.68;;
25237;SDS011;13185;50.872;5.306;2023-02-01T02:41:12;23.33;;;5.70;;
25237;SDS011;13185;50.872;5.306;2023-02-01T02:44:20;14.80;;;5.13;;
25237;SDS011;13185;50.872;5.306;2023-02-01T02:47:13;15.68;;;4.25;;
25237;SDS011;13185;50.872;5.306;2023-02-01T02:50:03;17.35;;;4.93;;
25237;SDS011;13185;50.872;5.306;2023-02-01T02:53:24;16.85;;;4.03;;
25237;SDS011;13185;50.872;5.306;2023-02-01T02:56:16;15.30;;;4.05;;
25237;SDS011;13185;50.872;5.306;2023-02-01T02:59:04;15.90;;;3.85;;
25237;SDS011;13185;50.872;5.306;2023-02-01T03:01:52;17.02;;;3.95;;
25237;SDS011;13185;50.872;5.306;2023-02-01T03:04:37;16.08;;;3.60;;
25237;SDS011;13185;50.872;5.306;2023-02-01T03:07:45;25.20;;;4.28;;
25237;SDS011;13185;50.872;5.306;2023-02-01T03:13:24;13.70;;;2.83;;
25237;SDS011;13185;50.872;5.306;2023-02-01T03:18:42;18.52;;;3.25;;
25237;SDS011;13185;50.872;5.306;2023-02-01T03:21:26;13.55;;;3.65;;
25237;SDS011;13185;50.872;5.306;2023-02-01T03:23:54;21.45;;;3.35;;
25237;SDS011;13185;50.872;5.306;2023-02-01T03:26:27;18.55;;;2.83;;
25237;SDS011;13185;50.872;5.306;2023-02-01T03:28:57;13.63;;;2.65;;
25237;SDS011;13185;50.872;5.306;2023-02-01T03:31:30;12.73;;;2.60;;
25237;SDS011;13185;50.872;5.306;2023-02-01T03:33:57;15.85;;;3.45;;
25237;SDS011;13185;50.872;5.306;2023-02-01T03:36:29;15.77;;;2.78;;
25237;SDS011;13185;50.872;5.306;2023-02-01T03:39:02;17.73;;;3.33;;
25237;SDS011;13185;50.872;5.306;2023-02-01T03:46:37;15.00;;;3.35;;
25237;SDS011;13185;50.872;5.306;2023-02-01T03:49:43;11.60;;;2.45;;
25237;SDS011;13185;50.872;5.306;2023-02-01T03:52:15;17.52;;;3.42;;
25237;SDS011;13185;50.872;5.306;2023-02-01T03:54:43;11.77;;;2.72;;
25237;SDS011;13185;50.872;5.306;2023-02-01T03:57:11;16.48;;;2.58;;
25237;SDS011;13185;50.872;5.306;2023-02-01T03:59:41;18.08;;;2.78;;
25237;SDS011;13185;50.872;5.306;2023-02-01T04:02:09;14.45;;;3.30;;
25237;SDS011;13185;50.872;5.306;2023-02-01T04:04:35;16.70;;;3.05;;
25237;SDS011;13185;50.872;5.306;2023-02-01T04:07:02;15.88;;;3.08;;
25237;SDS011;13185;50.872;5.306;2023-02-01T04:09:29;11.13;;;2.30;;
25237;SDS011;13185;50.872;5.306;2023-02-01T04:11:54;16.45;;;2.47;;
25237;SDS011;13185;50.872;5.306;2023-02-01T04:14:20;14.50;;;3.10;;
25237;SDS011;13185;50.872;5.306;2023-02-01T04:16:45;17.83;;;4.38;;
25237;SDS011;13185;50.872;5.306;2023-02-01T04:19:11;16.17;;;3.40;;
25237;SDS011;13185;50.872;5.306;2023-02-01T04:21:36;13.43;;;2.25;;
25237;SDS011;13185;50.872;5.306;2023-02-01T04:24:02;12.30;;;2.83;;
25237;SDS011;13185;50.872;5.306;2023-02-01T04:26:28;18.63;;;3.05;;
25237;SDS011;13185;50.872;5.306;2023-02-01T04:28:53;14.57;;;2.75;;
25237;SDS011;13185;50.872;5.306;2023-02-01T04:31:19;14.13;;;2.95;;
25237;SDS011;13185;50.872;5.306;2023-02-01T04:33:53;14.82;;;3.15;;
25237;SDS011;13185;50.872;5.306;2023-02-01T04:36:22;10.95;;;2.28;;
25237;SDS011;13185;50.872;5.306;2023-02-01T04:38:51;15.20;;;2.88;;
25237;SDS011;13185;50.872;5.306;2023-02-01T04:41:17;15.05;;;3.15;;
25237;SDS011;13185;50.872;5.306;2023-02-01T04:43:47;13.68;;;3.47;;
25237;SDS011;13185;50.872;5.306;2023-02-01T04:46:13;17.70;;;3.30;;
25237;SDS011;13185;50.872;5.306;2023-02-01T04:48:39;11.75;;;2.30;;
25237;SDS011;13185;50.872;5.306;2023-02-01T04:51:04;19.17;;;2.95;;
25237;SDS011;13185;50.872;5.306;2023-02-01T04:53:30;13.85;;;2.45;;
25237;SDS011;13185;50.872;5.306;2023-02-01T04:55:55;13.30;;;2.70;;
25237;SDS011;13185;50.872;5.306;2023-02-01T04:58:21;14.52;;;2.70;;
25237;SDS011;13185;50.872;5.306;2023-02-01T05:00:46;14.23;;;2.87;;
25237;SDS011;13185;50.872;5.306;2023-02-01T05:03:12;18.83;;;3.50;;
25237;SDS011;13185;50.872;5.306;2023-02-01T05:05:37;15.53;;;2.93;;
25237;SDS011;13185;50.872;5.306;2023-02-01T05:08:03;14.38;;;2.55;;
25237;SDS011;13185;50.872;5.306;2023-02-01T05:10:28;20.75;;;3.05;;
25237;SDS011;13185;50.872;5.306;2023-02-01T05:12:54;15.98;;;2.67;;
25237;SDS011;13185;50.872;5.306;2023-02-01T05:15:37;18.38;;;2.50;;
25237;SDS011;13185;50.872;5.306;2023-02-01T05:18:03;14.23;;;2.92;;
25237;SDS011;13185;50.872;5.306;2023-02-01T05:20:29;23.57;;;3.20;;
25237;SDS011;13185;50.872;5.306;2023-02-01T05:22:54;14.80;;;3.35;;
25237;SDS011;13185;50.872;5.306;2023-02-01T05:25:19;18.10;;;2.97;;
25237;SDS011;13185;50.872;5.306;2023-02-01T05:27:45;17.03;;;2.60;;
25237;SDS011;13185;50.872;5.306;2023-02-01T05:30:11;16.77;;;3.40;;
25237;SDS011;13185;50.872;5.306;2023-02-01T05:32:36;18.27;;;3.80;;
25237;SDS011;13185;50.872;5.306;2023-02-01T05:35:02;13.70;;;2.67;;
25237;SDS011;13185;50.872;5.306;2023-02-01T05:37:28;10.50;;;2.22;;
25237;SDS011;13185;50.872;5.306;2023-02-01T05:39:53;17.43;;;4.07;;
25237;SDS011;13185;50.872;5.306;2023-02-01T05:42:19;12.33;;;2.40;;
25237;SDS011;13185;50.872;5.306;2023-02-01T05:44:44;21.75;;;4.40;;
25237;SDS011;13185;50.872;5.306;2023-02-01T05:47:10;13.47;;;2.40;;
25237;SDS011;13185;50.872;5.306;2023-02-01T05:49:35;15.40;;;2.50;;
25237;SDS011;13185;50.872;5.306;2023-02-01T05:52:01;18.47;;;3.87;;
25237;SDS011;13185;50.872;5.306;2023-02-01T05:54:26;17.47;;;3.00;;
25237;SDS011;13185;50.872;5.306;2023-02-01T05:56:52;14.27;;;2.63;;
25237;SDS011;13185;50.872;5.306;2023-02-01T05:59:17;21.23;;;3.73;;
25237;SDS011;13185;50.872;5.306;2023-02-01T06:01:43;18.07;;;2.93;;
25237;SDS011;13185;50.872;5.306;2023-02-01T06:04:08;16.10;;;2.53;;
25237;SDS011;13185;50.872;5.306;2023-02-01T06:06:34;12.20;;;3.23;;
25237;SDS011;13185;50.872;5.306;2023-02-01T06:09:00;14.53;;;2.67;;
25237;SDS011;13185;50.872;5.306;2023-02-01T06:11:25;17.45;;;3.08;;
25237;SDS011;13185;50.872;5.306;2023-02-01T06:13:51;17.43;;;2.93;;
25237;SDS011;13185;50.872;5.306;2023-02-01T06:16:16;19.60;;;2.60;;
25237;SDS011;13185;50.872;5.306;2023-02-01T06:18:44;13.83;;;2.90;;
25237;SDS011;13185;50.872;5.306;2023-02-01T06:21:10;17.37;;;2.93;;
25237;SDS011;13185;50.872;5.306;2023-02-01T06:23:35;14.77;;;2.90;;
25237;SDS011;13185;50.872;5.306;2023-02-01T06:26:02;15.10;;;2.43;;
25237;SDS011;13185;50.872;5.306;2023-02-01T06:28:30;17.37;;;3.07;;
25237;SDS011;13185;50.872;5.306;2023-02-01T06:30:57;14.90;;;2.80;;
25237;SDS011;13185;50.872;5.306;2023-02-01T06:33:27;15.70;;;3.00;;
25237;SDS011;13185;50.872;5.306;2023-02-01T06:35:56;18.43;;;3.53;;
25237;SDS011;13185;50.872;5.306;2023-02-01T06:38:23;21.37;;;3.30;;
25237;SDS011;13185;50.872;5.306;2023-02-01T06:40:53;15.90;;;4.10;;
25237;SDS011;13185;50.872;5.306;2023-02-01T06:43:20;17.93;;;3.90;;
25237;SDS011;13185;50.872;5.306;2023-02-01T06:45:46;10.43;;;2.50;;
25237;SDS011;13185;50.872;5.306;2023-02-01T06:48:11;16.80;;;2.90;;
25237;SDS011;13185;50.872;5.306;2023-02-01T06:50:37;15.47;;;3.10;;
25237;SDS011;13185;50.872;5.306;2023-02-01T06:53:02;10.37;;;2.23;;
25237;SDS011;13185;50.872;5.306;2023-02-01T06:55:27;16.30;;;3.23;;
25237;SDS011;13185;50.872;5.306;2023-02-01T06:57:53;19.03;;;3.27;;
25237;SDS011;13185;50.872;5.306;2023-02-01T07:00:20;15.60;;;3.43;;
25237;SDS011;13185;50.872;5.306;2023-02-01T07:02:46;20.37;;;3.53;;
25237;SDS011;13185;50.872;5.306;2023-02-01T07:05:11;16.90;;;3.80;;
25237;SDS011;13185;50.872;5.306;2023-02-01T07:07:37;16.70;;;3.10;;
25237;SDS011;13185;50.872;5.306;2023-02-01T07:10:05;17.80;;;4.07;;
25237;SDS011;13185;50.872;5.306;2023-02-01T07:12:30;21.73;;;3.43;;
25237;SDS011;13185;50.872;5.306;2023-02-01T07:14:58;16.00;;;2.60;;
25237;SDS011;13185;50.872;5.306;2023-02-01T07:17:24;13.30;;;2.60;;
25237;SDS011;13185;50.872;5.306;2023-02-01T07:19:49;14.10;;;3.10;;
25237;SDS011;13185;50.872;5.306;2023-02-01T07:22:18;19.07;;;3.10;;
25237;SDS011;13185;50.872;5.306;2023-02-01T07:24:43;25.17;;;3.67;;
25237;SDS011;13185;50.872;5.306;2023-02-01T07:27:09;13.63;;;2.67;;
25237;SDS011;13185;50.872;5.306;2023-02-01T07:29:35;14.10;;;3.37;;
25237;SDS011;13185;50.872;5.306;2023-02-01T07:32:00;16.33;;;3.17;;
25237;SDS011;13185;50.872;5.306;2023-02-01T07:34:27;17.57;;;2.93;;
25237;SDS011;13185;50.872;5.306;2023-02-01T07:36:53;13.50;;;3.20;;
25237;SDS011;13185;50.872;5.306;2023-02-01T07:39:19;17.23;;;2.97;;
25237;SDS011;13185;50.872;5.306;2023-02-01T07:41:45;17.37;;;2.97;;
25237;SDS011;13185;50.872;5.306;2023-02-01T07:44:12;21.03;;;2.53;;
25237;SDS011;13185;50.872;5.306;2023-02-01T07:46:37;10.90;;;3.17;;
25237;SDS011;13185;50.872;5.306;2023-02-01T07:49:04;17.60;;;4.10;;
25237;SDS011;13185;50.872;5.306;2023-02-01T07:51:30;14.20;;;2.67;;
25237;SDS011;13185;50.872;5.306;2023-02-01T07:53:57;22.90;;;3.17;;
25237;SDS011;13185;50.872;5.306;2023-02-01T07:56:22;15.80;;;3.10;;
25237;SDS011;13185;50.872;5.306;2023-02-01T07:58:51;15.00;;;3.13;;
25237;SDS011;13185;50.872;5.306;2023-02-01T08:01:22;23.77;;;3.30;;
25237;SDS011;13185;50.872;5.306;2023-02-01T08:06:28;14.50;;;2.63;;
25237;SDS011;13185;50.872;5.306;2023-02-01T08:08:56;13.57;;;2.43;;
25237;SDS011;13185;50.872;5.306;2023-02-01T08:11:22;16.10;;;3.33;;
25237;SDS011;13185;50.872;5.306;2023-02-01T08:13:49;22.47;;;4.03;;
25237;SDS011;13185;50.872;5.306;2023-02-01T08:16:15;14.60;;;2.50;;
25237;SDS011;13185;50.872;5.306;2023-02-01T08:18:42;21.90;;;2.70;;
25237;SDS011;13185;50.872;5.306;2023-02-01T08:21:09;16.07;;;3.40;;
25237;SDS011;13185;50.872;5.306;2023-02-01T08:23:35;13.07;;;3.50;;
25237;SDS011;13185;50.872;5.306;2023-02-01T08:28:35;15.10;;;3.55;;
25237;SDS011;13185;50.872;5.306;2023-02-01T08:31:05;12.63;;;2.73;;
25237;SDS011;13185;50.872;5.306;2023-02-01T08:33:32;16.23;;;2.97;;
25237;SDS011;13185;50.872;5.306;2023-02-01T08:36:00;22.80;;;4.20;;
25237;SDS011;13185;50.872;5.306;2023-02-01T08:38:26;20.63;;;4.00;;
25237;SDS011;13185;50.872;5.306;2023-02-01T08:40:52;13.23;;;2.73;;
25237;SDS011;13185;50.872;5.306;2023-02-01T08:43:18;21.67;;;3.95;;
25237;SDS011;13185;50.872;5.306;2023-02-01T08:45:43;19.63;;;2.87;;
25237;SDS011;13185;50.872;5.306;2023-02-01T08:48:09;22.45;;;4.63;;
25237;SDS011;13185;50.872;5.306;2023-02-01T08:50:34;13.60;;;2.60;;
25237;SDS011;13185;50.872;5.306;2023-02-01T08:53:00;15.07;;;3.63;;
25237;SDS011;13185;50.872;5.306;2023-02-01T08:55:25;14.98;;;2.88;;
25237;SDS011;13185;50.872;5.306;2023-02-01T08:57:51;16.03;;;3.17;;
25237;SDS011;13185;50.872;5.306;2023-02-01T09:00:17;14.17;;;3.03;;
25237;SDS011;13185;50.872;5.306;2023-02-01T09:02:43;20.63;;;4.87;;
25237;SDS011;13185;50.872;5.306;2023-02-01T09:05:09;18.03;;;3.40;;
25237;SDS011;13185;50.872;5.306;2023-02-01T09:07:36;13.63;;;2.78;;
25237;SDS011;13185;50.872;5.306;2023-02-01T09:10:02;20.23;;;3.73;;
25237;SDS011;13185;50.872;5.306;2023-02-01T09:12:29;20.63;;;3.38;;
25237;SDS011;13185;50.872;5.306;2023-02-01T09:14:56;17.73;;;3.33;;
25237;SDS011;13185;50.872;5.306;2023-02-01T09:17:24;18.50;;;3.43;;
25237;SDS011;13185;50.872;5.306;2023-02-01T09:19:51;20.20;;;2.63;;
25237;SDS011;13185;50.872;5.306;2023-02-01T09:22:16;19.35;;;3.13;;
25237;SDS011;13185;50.872;5.306;2023-02-01T09:24:42;14.50;;;3.90;;
25237;SDS011;13185;50.872;5.306;2023-02-01T09:27:08;18.03;;;3.10;;
25237;SDS011;13185;50.872;5.306;2023-02-01T09:29:33;13.27;;;2.57;;
25237;SDS011;13185;50.872;5.306;2023-02-01T09:31:59;15.32;;;3.03;;
25237;SDS011;13185;50.872;5.306;2023-02-01T09:34:25;17.38;;;3.67;;
25237;SDS011;13185;50.872;5.306;2023-02-01T09:36:50;12.07;;;2.20;;
25237;SDS011;13185;50.872;5.306;2023-02-01T09:39:16;20.00;;;3.63;;
25237;SDS011;13185;50.872;5.306;2023-02-01T09:46:54;19.85;;;3.95;;
25237;SDS011;13185;50.872;5.306;2023-02-01T09:49:28;18.00;;;3.58;;
25237;SDS011;13185;50.872;5.306;2023-02-01T09:51:56;21.50;;;3.80;;
25237;SDS011;13185;50.872;5.306;2023-02-01T09:54:27;15.13;;;2.47;;
25237;SDS011;13185;50.872;5.306;2023-02-01T09:59:56;17.75;;;3.38;;
25237;SDS011;13185;50.872;5.306;2023-02-01T10:02:37;15.70;;;3.35;;
25237;SDS011;13185;50.872;5.306;2023-02-01T10:05:05;19.65;;;3.30;;
25237;SDS011;13185;50.872;5.306;2023-02-01T10:10:40;15.93;;;3.65;;
25237;SDS011;13185;50.872;5.306;2023-02-01T10:21:15;14.43;;;2.67;;
25237;SDS011;13185;50.872;5.306;2023-02-01T10:23:53;12.32;;;2.90;;
25237;SDS011;13185;50.872;5.306;2023-02-01T10:26:45;16.85;;;2.63;;
25237;SDS011;13185;50.872;5.306;2023-02-01T10:29:16;16.90;;;3.25;;
25237;SDS011;13185;50.872;5.306;2023-02-01T10:31:45;19.52;;;2.70;;
25237;SDS011;13185;50.872;5.306;2023-02-01T10:34:15;14.07;;;2.88;;
25237;SDS011;13185;50.872;5.306;2023-02-01T10:39:19;15.60;;;3.03;;
25237;SDS011;13185;50.872;5.306;2023-02-01T10:41:45;22.05;;;3.58;;
25237;SDS011;13185;50.872;5.306;2023-02-01T10:44:15;16.38;;;4.22;;
25237;SDS011;13185;50.872;5.306;2023-02-01T10:46:45;17.52;;;3.78;;
25237;SDS011;13185;50.872;5.306;2023-02-01T10:49:31;14.05;;;3.60;;
25237;SDS011;13185;50.872;5.306;2023-02-01T10:54:39;16.83;;;2.75;;
25237;SDS011;13185;50.872;5.306;2023-02-01T10:57:09;13.63;;;2.55;;
25237;SDS011;13185;50.872;5.306;2023-02-01T10:59:36;21.77;;;3.75;;
25237;SDS011;13185;50.872;5.306;2023-02-01T11:02:24;17.70;;;5.22;;
25237;SDS011;13185;50.872;5.306;2023-02-01T11:05:04;15.52;;;2.97;;
25237;SDS011;13185;50.872;5.306;2023-02-01T11:07:37;19.02;;;3.00;;
25237;SDS011;13185;50.872;5.306;2023-02-01T11:10:04;11.80;;;2.65;;
25237;SDS011;13185;50.872;5.306;2023-02-01T11:12:33;14.55;;;2.90;;
25237;SDS011;13185;50.872;5.306;2023-02-01T11:17:47;16.95;;;4.00;;
25237;SDS011;13185;50.872;5.306;2023-02-01T11:20:20;9.75;;;2.72;;
25237;SDS011;13185;50.872;5.306;2023-02-01T11:22:58;17.13;;;3.63;;
25237;SDS011;13185;50.872;5.306;2023-02-01T11:25:24;15.10;;;3.53;;
25237;SDS011;13185;50.872;5.306;2023-02-01T11:27:51;17.17;;;3.10;;
25237;SDS011;13185;50.872;5.306;2023-02-01T11:30:22;18.88;;;3.35;;
25237;SDS011;13185;50.872;5.306;2023-02-01T11:32:56;16.27;;;2.95;;
25237;SDS011;13185;50.872;5.306;2023-02-01T11:35:22;13.07;;;3.63;;
25237;SDS011;13185;50.872;5.306;2023-02-01T11:37:56;12.23;;;2.58;;
25237;SDS011;13185;50.872;5.306;2023-02-01T11:40:28;14.35;;;2.50;;
25237;SDS011;13185;50.872;5.306;2023-02-01T11:43:00;9.68;;;2.50;;
25237;SDS011;13185;50.872;5.306;2023-02-01T11:45:57;13.55;;;3.08;;
25237;SDS011;13185;50.872;5.306;2023-02-01T11:48:26;13.13;;;2.80;;
25237;SDS011;13185;50.872;5.306;2023-02-01T11:56:37;18.77;;;3.30;;
25237;SDS011;13185;50.872;5.306;2023-02-01T11:59:29;15.65;;;3.05;;
25237;SDS011;13185;50.872;5.306;2023-02-01T12:16:00;10.77;;;2.00;;
25237;SDS011;13185;50.872;5.306;2023-02-01T12:37:38;10.35;;;2.13;;
25237;SDS011;13185;50.872;5.306;2023-02-01T12:42:59;10.30;;;2.43;;
25237;SDS011;13185;50.872;5.306;2023-02-01T12:48:19;11.25;;;2.33;;
25237;SDS011;13185;50.872;5.306;2023-02-01T12:50:49;9.52;;;2.47;;
25237;SDS011;13185;50.872;5.306;2023-02-01T12:56:26;12.02;;;2.28;;
25237;SDS011;13185;50.872;5.306;2023-02-01T12:58:56;8.68;;;2.10;;
25237;SDS011;13185;50.872;5.306;2023-02-01T13:01:28;13.07;;;2.20;;
25237;SDS011;13185;50.872;5.306;2023-02-01T13:06:44;9.05;;;2.30;;
25237;SDS011;13185;50.872;5.306;2023-02-01T13:09:19;13.27;;;2.83;;
25237;SDS011;13185;50.872;5.306;2023-02-01T13:11:52;11.48;;;1.92;;
25237;SDS011;13185;50.872;5.306;2023-02-01T13:17:13;13.60;;;2.58;;
25237;SDS011;13185;50.872;5.306;2023-02-01T13:19:56;8.35;;;1.60;;
25237;SDS011;13185;50.872;5.306;2023-02-01T13:22:26;10.63;;;1.83;;
25237;SDS011;13185;50.872;5.306;2023-02-01T13:24:59;9.05;;;1.70;;
25237;SDS011;13185;50.872;5.306;2023-02-01T13:27:29;8.10;;;2.40;;
25237;SDS011;13185;50.872;5.306;2023-02-01T13:29:58;9.30;;;2.22;;
25237;SDS011;13185;50.872;5.306;2023-02-01T13:32:45;10.02;;;1.73;;
25237;SDS011;13185;50.872;5.306;2023-02-01T13:38:19;10.75;;;2.17;;
25237;SDS011;13185;50.872;5.306;2023-02-01T13:41:12;12.65;;;2.65;;
25237;SDS011;13185;50.872;5.306;2023-02-01T13:43:40;8.00;;;2.53;;
25237;SDS011;13185;50.872;5.306;2023-02-01T13:46:09;8.40;;;1.65;;
25237;SDS011;13185;50.872;5.306;2023-02-01T13:51:11;6.85;;;1.65;;
25237;SDS011;13185;50.872;5.306;2023-02-01T13:53:38;15.73;;;1.83;;
25237;SDS011;13185;50.872;5.306;2023-02-01T13:56:20;7.60;;;1.58;;
25237;SDS011;13185;50.872;5.306;2023-02-01T13:58:49;12.13;;;2.38;;
25237;SDS011;13185;50.872;5.306;2023-02-01T14:11:39;10.05;;;1.33;;
25237;SDS011;13185;50.872;5.306;2023-02-01T14:19:28;10.35;;;1.95;;
25237;SDS011;13185;50.872;5.306;2023-02-01T14:24:54;12.43;;;2.53;;
25237;SDS011;13185;50.872;5.306;2023-02-01T14:27:25;12.32;;;2.25;;
25237;SDS011;13185;50.872;5.306;2023-02-01T14:29:57;7.95;;;1.95;;
25237;SDS011;13185;50.872;5.306;2023-02-01T14:32:26;6.47;;;2.42;;
25237;SDS011;13185;50.872;5.306;2023-02-01T14:34:57;10.30;;;1.67;;
25237;SDS011;13185;50.872;5.306;2023-02-01T14:37:32;13.27;;;4.15;;
25237;SDS011;13185;50.872;5.306;2023-02-01T14:40:01;11.45;;;2.17;;
25237;SDS011;13185;50.872;5.306;2023-02-01T14:53:16;8.82;;;1.98;;
25237;SDS011;13185;50.872;5.306;2023-02-01T15:00:57;12.13;;;2.22;;
25237;SDS011;13185;50.872;5.306;2023-02-01T15:06:00;11.77;;;1.40;;
25237;SDS011;13185;50.872;5.306;2023-02-01T15:08:28;10.27;;;1.88;;
25237;SDS011;13185;50.872;5.306;2023-02-01T15:10:56;11.57;;;2.20;;
25237;SDS011;13185;50.872;5.306;2023-02-01T15:13:26;10.95;;;2.53;;
25237;SDS011;13185;50.872;5.306;2023-02-01T15:16:04;9.52;;;1.70;;
25237;SDS011;13185;50.872;5.306;2023-02-01T15:18:40;7.50;;;2.13;;
25237;SDS011;13185;50.872;5.306;2023-02-01T15:21:12;9.65;;;1.95;;
25237;SDS011;13185;50.872;5.306;2023-02-01T15:23:49;13.27;;;3.03;;
25237;SDS011;13185;50.872;5.306;2023-02-01T15:26:28;12.45;;;2.30;;
25237;SDS011;13185;50.872;5.306;2023-02-01T15:28:59;8.60;;;1.83;;
25237;SDS011;13185;50.872;5.306;2023-02-01T15:31:32;7.53;;;1.67;;
25237;SDS011;13185;50.872;5.306;2023-02-01T15:34:06;12.65;;;2.45;;
25237;SDS011;13185;50.872;5.306;2023-02-01T15:36:32;11.35;;;2.13;;
25237;SDS011;13185;50.872;5.306;2023-02-01T15:42:00;8.82;;;2.58;;
25237;SDS011;13185;50.872;5.306;2023-02-01T15:44:37;13.85;;;2.70;;
25237;SDS011;13185;50.872;5.306;2023-02-01T15:47:15;10.60;;;1.75;;
25237;SDS011;13185;50.872;5.306;2023-02-01T15:49:43;8.05;;;1.80;;
25237;SDS011;13185;50.872;5.306;2023-02-01T15:54:47;10.48;;;1.48;;
25237;SDS011;13185;50.872;5.306;2023-02-01T15:57:21;13.98;;;2.20;;
25237;SDS011;13185;50.872;5.306;2023-02-01T15:59:55;13.25;;;1.92;;
25237;SDS011;13185;50.872;5.306;2023-02-01T16:02:51;14.30;;;2.88;;
25237;SDS011;13185;50.872;5.306;2023-02-01T16:08:04;15.52;;;2.35;;
25237;SDS011;13185;50.872;5.306;2023-02-01T16:10:40;9.93;;;2.05;;
25237;SDS011;13185;50.872;5.306;2023-02-01T16:13:07;14.30;;;2.42;;
25237;SDS011;13185;50.872;5.306;2023-02-01T16:15:32;10.73;;;2.97;;
25237;SDS011;13185;50.872;5.306;2023-02-01T16:17:58;16.58;;;3.08;;
25237;SDS011;13185;50.872;5.306;2023-02-01T16:20:23;13.57;;;2.15;;
25237;SDS011;13185;50.872;5.306;2023-02-01T16:22:49;11.18;;;2.22;;
25237;SDS011;13185;50.872;5.306;2023-02-01T16:25:14;13.60;;;2.53;;
25237;SDS011;13185;50.872;5.306;2023-02-01T16:27:40;8.80;;;1.90;;
25237;SDS011;13185;50.872;5.306;2023-02-01T16:30:05;10.57;;;2.80;;
25237;SDS011;13185;50.872;5.306;2023-02-01T16:32:34;14.80;;;2.72;;
25237;SDS011;13185;50.872;5.306;2023-02-01T16:35:03;15.48;;;2.88;;
25237;SDS011;13185;50.872;5.306;2023-02-01T16:37:30;12.65;;;2.08;;
25237;SDS011;13185;50.872;5.306;2023-02-01T16:39:58;13.38;;;2.53;;
25237;SDS011;13185;50.872;5.306;2023-02-01T16:42:24;14.52;;;2.75;;
25237;SDS011;13185;50.872;5.306;2023-02-01T16:44:49;13.38;;;2.50;;
25237;SDS011;13185;50.872;5.306;2023-02-01T16:47:19;10.77;;;2.13;;
25237;SDS011;13185;50.872;5.306;2023-02-01T16:49:46;12.50;;;2.80;;
25237;SDS011;13185;50.872;5.306;2023-02-01T16:52:14;16.60;;;2.80;;
25237;SDS011;13185;50.872;5.306;2023-02-01T16:54:42;14.00;;;2.95;;
25237;SDS011;13185;50.872;5.306;2023-02-01T16:57:12;15.40;;;2.95;;
25237;SDS011;13185;50.872;5.306;2023-02-01T16:59:39;18.02;;;3.58;;
25237;SDS011;13185;50.872;5.306;2023-02-01T17:02:05;15.23;;;3.67;;
25237;SDS011;13185;50.872;5.306;2023-02-01T17:04:31;13.77;;;3.15;;
25237;SDS011;13185;50.872;5.306;2023-02-01T17:06:56;12.13;;;2.67;;
25237;SDS011;13185;50.872;5.306;2023-02-01T17:09:23;11.93;;;3.10;;
25237;SDS011;13185;50.872;5.306;2023-02-01T17:11:50;12.07;;;2.60;;
25237;SDS011;13185;50.872;5.306;2023-02-01T17:14:17;14.85;;;2.08;;
25237;SDS011;13185;50.872;5.306;2023-02-01T17:16:48;14.02;;;2.67;;
25237;SDS011;13185;50.872;5.306;2023-02-01T17:19:16;14.80;;;3.20;;
25237;SDS011;13185;50.872;5.306;2023-02-01T17:21:45;11.82;;;3.05;;
25237;SDS011;13185;50.872;5.306;2023-02-01T17:24:14;9.90;;;1.98;;
25237;SDS011;13185;50.872;5.306;2023-02-01T17:26:41;12.85;;;3.13;;
25237;SDS011;13185;50.872;5.306;2023-02-01T17:29:08;16.52;;;2.90;;
25237;SDS011;13185;50.872;5.306;2023-02-01T17:31:35;14.60;;;2.65;;
25237;SDS011;13185;50.872;5.306;2023-02-01T17:34:03;14.68;;;2.95;;
25237;SDS011;13185;50.872;5.306;2023-02-01T17:36:28;17.90;;;2.63;;
25237;SDS011;13185;50.872;5.306;2023-02-01T17:38:54;11.60;;;2.53;;
25237;SDS011;13185;50.872;5.306;2023-02-01T17:41:19;11.70;;;3.05;;